Valley Lee, Maryland
Current Conditions -  °F | °C
As of 12:53 AM on Thursday 27 Nov 2014 (Local Time) from KNUI Reporting Station
Broken Clouds Broken Clouds  
Wind Chill: 32°   Ceiling: 9500
Heat Index: 38°   Visibility: 10mi
Dew Point: 32°   Wind: 8mph
Humidity: 79%   Direction: 280°W
Pressure: 30.01"   Gusts: NA
Location:  38.2°N, 76.51°W
Report Text: KNUI 270553Z AUTO 28007KT 10SM BKN095 03/00 A3001 RMK AO2 SLP162 60000 T00330000 10039 20033 51010
Loading
Personal Weather Stations






























Interactive Weather Map New forecast layout! Learn more

10-Day Weather Forecast

Advertisements
Track Severe Weather on mobile